createdAt,value
2023-03-01T00:00:24.975Z,64.63
2023-03-01T00:03:48.642Z,64.63
2023-03-01T00:06:52.264Z,64.62
2023-03-01T00:09:55.530Z,64.66
2023-03-01T00:12:58.752Z,64.69
2023-03-01T00:16:06.663Z,64.63
2023-03-01T00:19:20.779Z,64.57
2023-03-01T00:22:24.486Z,64.56
2023-03-01T00:25:27.740Z,64.62
2023-03-01T00:28:30.970Z,64.63
2023-03-01T00:31:35.244Z,64.66
2023-03-01T00:34:38.524Z,64.73
2023-03-01T00:37:42.460Z,64.79
2023-03-01T00:40:45.703Z,64.79
2023-03-01T00:43:49.443Z,64.82
2023-03-01T00:46:52.674Z,64.85
2023-03-01T00:49:55.853Z,64.87
2023-03-01T00:52:59.261Z,64.90
2023-03-01T00:56:03.660Z,64.97
2023-03-01T00:59:06.888Z,64.92
2023-03-01T01:02:10.275Z,64.84
2023-03-01T01:05:13.801Z,64.82
2023-03-01T01:08:17.023Z,64.80
2023-03-01T01:11:21.739Z,64.77
2023-03-01T01:14:25.031Z,64.77
2023-03-01T01:17:28.319Z,64.79
2023-03-01T01:20:33.816Z,64.82
2023-03-01T01:23:38.449Z,64.89
2023-03-01T01:26:42.786Z,64.92
2023-03-01T01:29:46.087Z,64.99
2023-03-01T01:32:49.351Z,64.97
2023-03-01T01:35:53.288Z,65.00
2023-03-01T01:38:56.655Z,65.04
2023-03-01T01:42:01.850Z,65.07
2023-03-01T01:45:33.103Z,65.12
2023-03-01T01:48:47.701Z,65.16
2023-03-01T01:51:55.077Z,65.15
2023-03-01T01:55:12.795Z,65.12
2023-03-01T01:58:20.273Z,65.09
2023-03-01T02:01:23.813Z,65.04
2023-03-01T02:04:27.301Z,64.99
2023-03-01T02:07:31.349Z,64.96
2023-03-01T02:10:35.952Z,64.98
2023-03-01T02:13:40.193Z,65.08
2023-03-01T02:16:44.123Z,65.17
2023-03-01T02:20:15.355Z,65.22
2023-03-01T02:23:18.922Z,65.32
2023-03-01T02:26:35.981Z,65.31
2023-03-01T02:29:39.603Z,65.25
2023-03-01T02:32:43.145Z,65.19
2023-03-01T02:35:46.851Z,65.22
2023-03-01T02:38:54.479Z,65.27
2023-03-01T02:42:00.003Z,65.32
2023-03-01T02:45:04.383Z,65.38
2023-03-01T02:48:07.758Z,65.40
2023-03-01T02:51:43.699Z,65.43
2023-03-01T02:54:59.097Z,65.45
2023-03-01T02:58:04.448Z,65.47
2023-03-01T03:01:10.276Z,65.43
2023-03-01T03:04:19.127Z,65.45
2023-03-01T03:07:23.991Z,65.48
2023-03-01T03:10:33.535Z,65.48
2023-03-01T03:13:36.800Z,65.50
2023-03-01T03:16:46.072Z,65.53
2023-03-01T03:19:49.542Z,65.53
2023-03-01T03:22:55.100Z,65.55
2023-03-01T03:25:58.237Z,65.63
2023-03-01T03:29:01.998Z,65.71
2023-03-01T03:32:05.382Z,65.73
2023-03-01T03:35:10.835Z,65.73
2023-03-01T03:38:16.921Z,65.71
2023-03-01T03:41:20.174Z,65.72
2023-03-01T03:44:23.382Z,65.70
2023-03-01T03:47:26.649Z,65.73
2023-03-01T03:50:30.340Z,65.76
2023-03-01T03:53:33.652Z,65.76
2023-03-01T03:56:37.643Z,65.76
2023-03-01T03:59:41.947Z,65.75
2023-03-01T04:02:46.223Z,65.73
2023-03-01T04:05:51.652Z,65.77
2023-03-01T04:08:59.222Z,65.76
2023-03-01T04:12:02.445Z,65.72
2023-03-01T04:15:14.094Z,65.73
2023-03-01T04:18:18.936Z,65.69
2023-03-01T04:21:22.835Z,65.70
2023-03-01T04:24:26.091Z,65.71
2023-03-01T04:27:29.543Z,65.72
2023-03-01T04:30:36.748Z,65.73
2023-03-01T04:33:55.087Z,65.78
2023-03-01T04:36:58.346Z,65.84
2023-03-01T04:40:13.310Z,65.91
2023-03-01T04:43:16.605Z,65.97
2023-03-01T04:46:21.986Z,66.03
2023-03-01T04:49:25.336Z,66.09
2023-03-01T04:52:28.539Z,66.07
2023-03-01T04:55:32.571Z,66.04
2023-03-01T04:58:35.996Z,66.00
2023-03-01T05:01:40.185Z,65.99
2023-03-01T05:04:43.457Z,65.96
2023-03-01T05:07:46.652Z,65.94
2023-03-01T05:10:52.523Z,65.95
2023-03-01T05:13:56.494Z,65.92
2023-03-01T05:17:04.946Z,65.94
2023-03-01T05:20:11.860Z,65.99
2023-03-01T05:23:15.080Z,66.02
2023-03-01T05:26:28.785Z,66.07
2023-03-01T05:29:35.877Z,66.14
2023-03-01T05:32:39.093Z,66.23
2023-03-01T05:35:44.212Z,66.22
2023-03-01T05:38:47.416Z,66.17
2023-03-01T05:42:02.192Z,66.20
2023-03-01T05:45:05.688Z,66.16
2023-03-01T05:48:10.199Z,66.11
2023-03-01T05:51:13.449Z,66.10
2023-03-01T05:54:17.111Z,66.11
2023-03-01T05:57:21.296Z,66.20
2023-03-01T06:00:24.723Z,66.26
2023-03-01T06:03:27.948Z,66.31
2023-03-01T06:06:35.715Z,66.37
2023-03-01T06:09:38.905Z,66.38
2023-03-01T06:12:43.486Z,66.40
2023-03-01T06:15:46.718Z,66.47
2023-03-01T06:18:49.972Z,66.52
2023-03-01T06:21:53.264Z,66.58
2023-03-01T06:24:56.519Z,66.66
2023-03-01T06:27:59.813Z,66.68
2023-03-01T06:31:03.504Z,66.74
2023-03-01T06:34:06.790Z,66.82
2023-03-01T06:37:10.058Z,66.91
2023-03-01T06:40:14.892Z,67.00
2023-03-01T06:43:18.226Z,67.11
2023-03-01T06:46:22.632Z,67.17
2023-03-01T06:49:25.932Z,67.30
2023-03-01T06:52:30.492Z,67.45
2023-03-01T06:55:33.883Z,67.54
2023-03-01T06:58:37.610Z,67.61
2023-03-01T07:01:40.912Z,67.64
2023-03-01T07:04:44.166Z,67.73
2023-03-01T07:07:47.464Z,67.83
2023-03-01T07:10:56.966Z,67.90
2023-03-01T07:14:01.142Z,67.92
2023-03-01T07:17:04.373Z,67.93
2023-03-01T07:20:07.960Z,67.88
2023-03-01T07:23:11.204Z,67.70
2023-03-01T07:26:14.367Z,67.51
2023-03-01T07:29:18.796Z,67.74
2023-03-01T07:32:22.161Z,67.87
2023-03-01T07:35:28.503Z,67.74
2023-03-01T07:38:32.398Z,67.17
2023-03-01T07:41:35.770Z,66.58
2023-03-01T07:44:39.080Z,66.34
2023-03-01T07:47:42.418Z,66.13
2023-03-01T07:50:48.944Z,65.66
2023-03-01T07:53:52.166Z,65.36
2023-03-01T07:58:09.815Z,65.10
2023-03-01T08:01:16.541Z,65.18
2023-03-01T08:04:20.081Z,65.16
2023-03-01T08:07:23.491Z,64.72
2023-03-01T08:10:26.902Z,64.25
2023-03-01T08:13:31.008Z,64.00
2023-03-01T08:16:36.397Z,63.64
2023-03-01T08:19:39.730Z,63.40
2023-03-01T08:22:43.025Z,63.22
2023-03-01T08:25:46.327Z,62.85
2023-03-01T08:28:50.656Z,62.57
2023-03-01T08:31:54.184Z,62.16
2023-03-01T08:34:57.780Z,62.11
2023-03-01T08:38:01.350Z,62.20
2023-03-01T08:41:05.490Z,61.79
2023-03-01T08:44:10.605Z,61.35
2023-03-01T08:47:14.152Z,61.39
2023-03-01T08:50:17.521Z,61.26
2023-03-01T08:53:20.902Z,61.33
2023-03-01T08:56:24.182Z,61.48
2023-03-01T08:59:28.122Z,61.01
2023-03-01T09:02:31.587Z,61.06
2023-03-01T09:05:35.528Z,60.83
2023-03-01T09:08:41.378Z,60.70
2023-03-01T09:11:51.178Z,60.51
2023-03-01T09:14:57.819Z,60.27
2023-03-01T09:18:01.471Z,59.98
2023-03-01T09:21:09.707Z,60.02
2023-03-01T09:24:15.795Z,59.56
2023-03-01T09:27:20.722Z,59.09
2023-03-01T09:30:25.264Z,58.81
2023-03-01T09:33:30.924Z,58.32
2023-03-01T09:36:35.160Z,57.64
2023-03-01T09:39:38.508Z,57.29
2023-03-01T09:42:53.771Z,56.92
2023-03-01T09:46:04.580Z,56.54
2023-03-01T09:49:15.463Z,56.35
2023-03-01T09:52:28.000Z,56.28
2023-03-01T09:55:32.867Z,56.16
2023-03-01T09:58:40.952Z,56.71
2023-03-01T10:02:22.666Z,55.92
2023-03-01T10:05:44.293Z,55.55
2023-03-01T10:08:56.055Z,54.86
2023-03-01T10:12:02.462Z,54.17
2023-03-01T10:15:13.695Z,54.05
2023-03-01T10:18:22.469Z,53.70
2023-03-01T10:21:28.448Z,53.63
2023-03-01T10:24:36.646Z,53.61
2023-03-01T10:27:45.702Z,53.74
2023-03-01T10:30:49.216Z,53.87
2023-03-01T10:33:56.044Z,53.51
2023-03-01T10:37:11.069Z,53.16
2023-03-01T10:40:14.570Z,52.75
2023-03-01T10:43:18.698Z,52.65
2023-03-01T10:46:29.843Z,52.42
2023-03-01T10:49:33.215Z,52.29
2023-03-01T10:52:38.869Z,52.42
2023-03-01T10:55:42.321Z,52.28
2023-03-01T10:59:21.075Z,51.34
2023-03-01T11:02:31.165Z,51.21
2023-03-01T11:05:34.764Z,50.36
2023-03-01T11:08:44.303Z,49.51
2023-03-01T11:11:56.038Z,48.74
2023-03-01T11:14:59.379Z,47.78
2023-03-01T11:18:13.929Z,47.19
2023-03-01T11:21:18.272Z,46.87
2023-03-01T11:24:30.202Z,46.74
2023-03-01T11:27:37.197Z,46.00
2023-03-01T11:31:06.738Z,46.17
2023-03-01T11:34:18.877Z,46.11
2023-03-01T11:37:33.687Z,45.95
2023-03-01T11:40:43.432Z,45.57
2023-03-01T11:44:12.841Z,45.01
2023-03-01T11:47:44.819Z,45.10
2023-03-01T11:50:49.965Z,45.08
2023-03-01T11:54:28.576Z,44.76
2023-03-01T11:57:43.811Z,44.65
2023-03-01T12:01:15.278Z,44.31
2023-03-01T12:04:42.930Z,44.03
2023-03-01T12:07:55.251Z,43.16
2023-03-01T12:11:13.476Z,42.69
2023-03-01T12:14:35.166Z,42.62
2023-03-01T12:18:13.785Z,42.21
2023-03-01T12:21:33.506Z,42.42
2023-03-01T12:24:58.622Z,42.26
2023-03-01T12:28:04.811Z,41.99
2023-03-01T12:31:31.357Z,40.59
2023-03-01T12:34:42.626Z,40.32
2023-03-01T12:38:12.349Z,40.92
2023-03-01T12:41:37.256Z,40.14
2023-03-01T12:44:40.529Z,38.94
2023-03-01T12:48:16.564Z,38.91
2023-03-01T12:51:25.365Z,38.91
2023-03-01T12:54:32.760Z,38.79
2023-03-01T12:57:44.127Z,38.39
2023-03-01T13:00:54.012Z,38.60
2023-03-01T13:04:00.975Z,38.46
2023-03-01T13:07:22.757Z,38.14
2023-03-01T13:10:56.667Z,37.81
2023-03-01T13:14:21.493Z,37.99
2023-03-01T13:17:44.200Z,38.48
2023-03-01T13:20:50.804Z,38.61
2023-03-01T13:23:54.107Z,38.74
2023-03-01T13:27:51.088Z,38.43
2023-03-01T13:30:54.394Z,38.68
2023-03-01T13:34:01.971Z,38.72
2023-03-01T13:37:19.579Z,38.35
2023-03-01T13:40:23.680Z,38.58
2023-03-01T13:43:37.280Z,38.85
2023-03-01T13:46:41.334Z,39.14
2023-03-01T13:49:47.679Z,38.76
2023-03-01T13:53:00.163Z,38.32
2023-03-01T13:56:09.150Z,38.56
2023-03-01T13:59:18.650Z,39.05
2023-03-01T14:02:21.834Z,39.00
2023-03-01T14:05:25.112Z,38.96
2023-03-01T14:08:30.172Z,39.18
2023-03-01T14:11:45.309Z,39.44
2023-03-01T14:15:19.885Z,39.45
2023-03-01T14:18:34.546Z,39.22
2023-03-01T14:21:37.988Z,39.32
2023-03-01T14:24:48.627Z,39.39
2023-03-01T14:28:02.933Z,39.29
2023-03-01T14:31:52.430Z,39.45
2023-03-01T14:34:57.778Z,39.35
2023-03-01T14:38:01.308Z,39.30
2023-03-01T14:41:13.730Z,39.52
2023-03-01T14:44:20.746Z,39.77
2023-03-01T14:47:27.129Z,40.22
2023-03-01T14:50:36.230Z,40.76
2023-03-01T14:53:50.375Z,41.18
2023-03-01T14:56:58.873Z,41.02
2023-03-01T15:00:06.484Z,41.12
2023-03-01T15:03:15.735Z,41.55
2023-03-01T15:06:22.701Z,42.07
2023-03-01T15:09:26.036Z,41.90
2023-03-01T15:12:29.190Z,41.89
2023-03-01T15:15:37.506Z,41.93
2023-03-01T15:18:49.604Z,41.97
2023-03-01T15:21:52.983Z,42.78
2023-03-01T15:24:56.735Z,42.88
2023-03-01T15:28:02.391Z,43.18
2023-03-01T15:31:20.252Z,43.47
2023-03-01T15:34:33.198Z,43.35
2023-03-01T15:37:41.281Z,44.21
2023-03-01T15:40:51.543Z,44.27
2023-03-01T15:43:56.884Z,44.43
2023-03-01T15:47:01.483Z,44.99
2023-03-01T15:50:05.442Z,45.61
2023-03-01T15:53:13.126Z,45.80
2023-03-01T15:56:16.463Z,46.09
2023-03-01T15:59:20.409Z,46.70
2023-03-01T16:02:25.411Z,47.00
2023-03-01T16:05:31.709Z,47.09
2023-03-01T16:08:34.936Z,47.03
2023-03-01T16:11:39.193Z,47.63
2023-03-01T16:14:43.071Z,47.75
2023-03-01T16:17:47.174Z,47.84
2023-03-01T16:20:55.227Z,48.02
2023-03-01T16:23:58.643Z,48.39
2023-03-01T16:27:01.910Z,48.50
2023-03-01T16:30:07.316Z,48.52
2023-03-01T16:33:25.185Z,48.65
2023-03-01T16:36:34.209Z,48.87
2023-03-01T16:39:39.721Z,48.90
2023-03-01T16:42:43.200Z,49.03
2023-03-01T16:45:47.561Z,49.57
2023-03-01T16:48:52.364Z,49.63
2023-03-01T16:51:55.631Z,49.51
2023-03-01T16:54:58.840Z,49.70
2023-03-01T16:58:02.605Z,49.68
2023-03-01T17:01:20.359Z,49.69
2023-03-01T17:04:23.587Z,49.83
2023-03-01T17:07:27.144Z,49.94
2023-03-01T17:10:30.429Z,50.04
2023-03-01T17:13:33.764Z,50.08
2023-03-01T17:16:39.433Z,50.23
2023-03-01T17:19:44.530Z,50.32
2023-03-01T17:22:52.765Z,50.51
2023-03-01T17:25:56.406Z,50.42
2023-03-01T17:29:04.043Z,50.87
2023-03-01T17:32:08.396Z,50.81
2023-03-01T17:35:12.533Z,50.94
2023-03-01T17:38:18.929Z,50.90
2023-03-01T17:41:25.140Z,51.20
2023-03-01T17:44:36.720Z,51.41
2023-03-01T17:47:40.630Z,51.73
2023-03-01T17:50:44.842Z,51.91
2023-03-01T17:53:48.047Z,51.91
2023-03-01T17:56:51.690Z,53.40
2023-03-01T17:59:55.062Z,53.05
2023-03-01T18:02:59.159Z,52.69
2023-03-01T18:06:02.938Z,52.80
2023-03-01T18:09:06.376Z,52.78
2023-03-01T18:12:10.891Z,52.92
2023-03-01T18:15:14.130Z,52.60
2023-03-01T18:18:17.942Z,52.78
2023-03-01T18:21:21.620Z,52.86
2023-03-01T18:24:24.941Z,52.88
2023-03-01T18:27:28.177Z,53.36
2023-03-01T18:30:32.863Z,53.78
2023-03-01T18:33:36.238Z,54.01
2023-03-01T18:36:41.405Z,54.15
2023-03-01T18:39:44.752Z,54.08
2023-03-01T18:42:48.113Z,54.21
2023-03-01T18:45:57.630Z,54.34
2023-03-01T18:49:00.987Z,54.36
2023-03-01T18:52:04.739Z,54.49
2023-03-01T18:55:08.306Z,54.60
2023-03-01T18:58:11.490Z,54.56
2023-03-01T19:01:26.852Z,54.63
2023-03-01T19:04:30.119Z,54.59
2023-03-01T19:07:35.463Z,54.93
2023-03-01T19:10:38.780Z,55.05
2023-03-01T19:13:42.005Z,55.27
2023-03-01T19:16:45.309Z,55.31
2023-03-01T19:19:50.165Z,55.25
2023-03-01T19:22:53.433Z,55.23
2023-03-01T19:26:11.554Z,55.36
2023-03-01T19:29:14.897Z,55.41
2023-03-01T19:32:18.326Z,55.40
2023-03-01T19:35:23.472Z,55.38
2023-03-01T19:38:28.136Z,55.64
2023-03-01T19:41:31.828Z,55.79
2023-03-01T19:44:35.085Z,55.81
2023-03-01T19:47:38.366Z,55.94
2023-03-01T19:50:45.166Z,55.90
2023-03-01T19:53:48.632Z,55.95
2023-03-01T19:56:52.038Z,55.96
2023-03-01T19:59:55.273Z,55.97
2023-03-01T20:02:58.701Z,56.06
2023-03-01T20:06:10.974Z,56.22
2023-03-01T20:09:21.347Z,56.42
2023-03-01T20:12:25.003Z,56.33
2023-03-01T20:15:28.656Z,56.45
2023-03-01T20:18:32.153Z,56.55
2023-03-01T20:21:35.500Z,56.70
2023-03-01T20:24:38.777Z,56.76
2023-03-01T20:27:47.141Z,56.83
2023-03-01T20:30:50.347Z,57.01
2023-03-01T20:33:58.512Z,57.08
2023-03-01T20:37:02.827Z,57.15
2023-03-01T20:40:07.309Z,57.16
2023-03-01T20:43:10.643Z,57.18
2023-03-01T20:46:15.138Z,57.26
2023-03-01T20:49:18.590Z,57.35
2023-03-01T20:52:21.912Z,57.43
2023-03-01T20:55:25.250Z,57.56
2023-03-01T20:58:32.734Z,57.64
2023-03-01T21:01:37.902Z,57.56
2023-03-01T21:04:41.207Z,57.59
2023-03-01T21:07:45.676Z,57.70
2023-03-01T21:10:53.199Z,57.83
2023-03-01T21:13:58.433Z,57.99
2023-03-01T21:17:01.579Z,58.13
2023-03-01T21:20:05.974Z,58.18
2023-03-01T21:23:09.825Z,58.20
2023-03-01T21:26:15.824Z,58.14
2023-03-01T21:29:19.055Z,58.13
2023-03-01T21:32:22.407Z,58.24
2023-03-01T21:35:25.784Z,58.36
2023-03-01T21:38:37.916Z,58.45
2023-03-01T21:41:41.258Z,58.58
2023-03-01T21:44:44.453Z,58.62
2023-03-01T21:47:47.638Z,58.66
2023-03-01T21:50:58.793Z,58.68
2023-03-01T21:54:02.912Z,58.69
2023-03-01T21:57:06.125Z,58.81
2023-03-01T22:00:11.270Z,58.92
2023-03-01T22:03:16.561Z,59.00
2023-03-01T22:06:29.675Z,59.04
2023-03-01T22:09:35.023Z,59.14
2023-03-01T22:12:38.319Z,59.21
2023-03-01T22:15:43.230Z,59.33
2023-03-01T22:18:47.116Z,59.46
2023-03-01T22:21:52.772Z,59.54
2023-03-01T22:24:55.998Z,59.65
2023-03-01T22:27:59.363Z,59.76
2023-03-01T22:31:06.333Z,59.83
2023-03-01T22:34:09.939Z,59.93
2023-03-01T22:37:13.432Z,59.93
2023-03-01T22:40:16.670Z,59.99
2023-03-01T22:43:19.901Z,60.07
2023-03-01T22:46:24.114Z,60.10
2023-03-01T22:49:27.371Z,60.12
2023-03-01T22:52:30.598Z,60.17
2023-03-01T22:55:33.794Z,60.10
2023-03-01T22:58:37.070Z,60.08
2023-03-01T23:01:42.292Z,60.24
2023-03-01T23:04:48.388Z,60.24
2023-03-01T23:07:51.585Z,60.31
2023-03-01T23:10:54.804Z,60.34
2023-03-01T23:13:58.755Z,60.32
2023-03-01T23:17:02.697Z,60.35
2023-03-01T23:20:10.504Z,60.44
2023-03-01T23:23:13.987Z,60.53
2023-03-01T23:26:18.462Z,60.58
2023-03-01T23:29:22.291Z,60.59
2023-03-01T23:32:25.914Z,60.61
2023-03-01T23:35:29.253Z,60.57
2023-03-01T23:38:32.684Z,60.62
2023-03-01T23:41:36.022Z,60.70
2023-03-01T23:44:40.874Z,60.76
2023-03-01T23:47:44.414Z,60.69
2023-03-01T23:50:48.397Z,60.68
2023-03-01T23:53:55.664Z,60.78
2023-03-01T23:56:59.005Z,60.87
